Time;durP1;ratioP1;P1;durP2;ratioP2;P2;SDS_P1;SDS_P2;PMS_P1;PMS_P2;Temp;Humidity;BMP_temperature;BMP_pressure;BME280_temperature;BME280_humidity;BME280_pressure;Samples;Min_cycle;Max_cycle;Signal;HPM_P1;HPM_P2
2022/12/10 01:18:45;;;;;;;59.30;25.50;;;1.00;99.90;;;;;;5980942;23;21498;-79
2022/12/10 01:21:19;;;;;;;60.07;27.17;;;1.60;99.90;;;;;;4973316;28;20502;-80
2022/12/10 01:23:49;;;;;;;56.20;25.97;;;1.10;99.90;;;;;;4968468;29;21029;-84
2022/12/10 01:26:21;;;;;;;60.07;26.53;;;1.10;99.90;;;;;;4966665;28;20454;-82
2022/12/10 01:28:50;;;;;;;51.80;24.80;;;1.10;99.90;;;;;;4966373;29;20450;-82
2022/12/10 01:31:20;;;;;;;49.00;24.40;;;1.20;99.90;;;;;;4966323;28;20490;-84
2022/12/10 01:33:52;;;;;;;46.53;23.03;;;1.20;99.90;;;;;;4960967;28;20485;-84
2022/12/10 01:36:29;;;;;;;51.83;24.23;;;1.20;99.90;;;;;;4957345;28;20454;-86
2022/12/10 01:38:57;;;;;;;45.57;23.80;;;1.20;99.90;;;;;;4957734;29;20981;-82
2022/12/10 01:41:28;;;;;;;52.33;24.77;;;1.20;99.90;;;;;;4958786;28;20965;-83
2022/12/10 01:44:03;;;;;;;49.30;20.93;;;1.20;99.90;;;;;;4958255;28;20455;-83
2022/12/10 01:46:38;;;;;;;46.93;23.33;;;1.10;99.90;;;;;;4956451;29;20454;-67
2022/12/10 01:49:13;;;;;;;45.90;20.10;;;1.20;99.90;;;;;;4952994;28;20463;-72
2022/12/10 01:51:42;;;;;;;49.03;21.90;;;1.20;99.90;;;;;;4952218;28;20469;-73
2022/12/10 01:54:15;;;;;;;47.07;21.90;;;1.20;99.90;;;;;;4952249;29;20451;-74
2022/12/10 01:56:44;;;;;;;44.87;22.77;;;1.10;99.90;;;;;;4950803;28;20471;-72
2022/12/10 01:59:13;;;;;;;48.33;21.40;;;1.10;99.90;;;;;;4951420;28;20525;-75
2022/12/10 02:01:52;;;;;;;48.60;22.77;;;1.10;99.90;;;;;;4950549;29;20447;-74
2022/12/10 02:04:31;;;;;;;45.87;22.77;;;1.10;99.90;;;;;;4951527;28;20459;-73
2022/12/10 02:07:02;;;;;;;42.93;21.23;;;1.10;99.90;;;;;;4951726;29;20457;-73
2022/12/10 02:09:38;;;;;;;40.57;21.37;;;1.10;99.90;;;;;;4951749;28;20486;-72
2022/12/10 02:12:13;;;;;;;48.03;22.30;;;1.10;99.90;;;;;;4951594;28;20470;-73
2022/12/10 02:14:52;;;;;;;47.20;22.60;;;1.10;99.90;;;;;;4953126;29;20954;-73
2022/12/10 02:17:25;;;;;;;44.70;21.60;;;1.10;99.90;;;;;;4952048;28;20553;-73
2022/12/10 02:20:02;;;;;;;43.57;23.23;;;1.10;99.90;;;;;;4951737;29;21023;-73
2022/12/10 02:22:35;;;;;;;46.43;23.90;;;1.40;99.90;;;;;;4951331;28;20458;-73
2022/12/10 02:25:13;;;;;;;50.53;20.53;;;1.10;99.90;;;;;;4951737;29;20503;-73
2022/12/10 02:27:53;;;;;;;54.90;24.70;;;1.10;99.90;;;;;;4952185;29;20465;-73
2022/12/10 02:30:22;;;;;;;47.97;23.63;;;1.10;99.90;;;;;;4950844;29;20466;-75
2022/12/10 02:32:53;;;;;;;51.20;24.77;;;1.10;99.90;;;;;;4951330;29;20461;-72
2022/12/10 02:35:25;;;;;;;48.90;22.20;;;1.10;99.90;;;;;;4951571;28;20470;-73
2022/12/10 02:37:58;;;;;;;38.93;21.10;;;1.10;99.90;;;;;;4951559;29;20486;-73
2022/12/10 02:40:37;;;;;;;46.07;21.57;;;1.10;99.90;;;;;;4951563;29;20447;-73
2022/12/10 02:43:06;;;;;;;46.03;21.53;;;1.10;99.90;;;;;;4951201;29;20473;-73
2022/12/10 02:45:36;;;;;;;45.20;22.13;;;1.00;99.90;;;;;;4951257;29;20622;-74
2022/12/10 02:48:19;;;;;;;47.47;20.83;;;1.10;99.90;;;;;;4949925;28;20493;-74
2022/12/10 02:50:51;;;;;;;42.37;21.80;;;1.10;99.90;;;;;;4951089;29;20455;-73
2022/12/10 02:53:28;;;;;;;48.67;20.00;;;1.10;99.90;;;;;;4951432;28;20463;-73
2022/12/10 02:56:17;;;;;;;39.87;21.57;;;0.90;99.90;;;;;;4951330;28;20493;-73
2022/12/10 02:58:56;;;;;;;38.47;19.40;;;1.00;99.90;;;;;;4950753;28;20487;-73
2022/12/10 03:01:45;;;;;;;44.37;21.47;;;0.90;99.90;;;;;;4950452;29;20454;-75
2022/12/10 03:04:38;;;;;;;39.53;21.27;;;1.00;99.90;;;;;;4948381;29;20530;-73
2022/12/10 03:07:15;;;;;;;46.20;20.37;;;1.00;99.90;;;;;;4951281;29;20542;-73
2022/12/10 03:09:57;;;;;;;40.80;21.23;;;1.00;99.90;;;;;;4950514;29;21005;-74
2022/12/10 03:12:31;;;;;;;41.30;20.60;;;1.00;99.90;;;;;;4950976;29;21018;-75
2022/12/10 03:15:03;;;;;;;40.50;20.40;;;0.90;99.90;;;;;;4951139;29;20550;-74
2022/12/10 03:17:39;;;;;;;42.93;21.60;;;0.90;99.90;;;;;;4950776;29;20750;-75
2022/12/10 03:20:09;;;;;;;39.53;19.37;;;0.90;99.90;;;;;;4949411;29;20552;-74
2022/12/10 03:22:40;;;;;;;38.60;18.90;;;1.00;99.90;;;;;;4950436;29;20466;-74
2022/12/10 03:25:12;;;;;;;34.10;18.37;;;1.00;99.90;;;;;;4950656;29;20467;-74
2022/12/10 03:27:43;;;;;;;37.80;19.10;;;1.00;99.90;;;;;;4950490;29;20832;-72
2022/12/10 03:30:16;;;;;;;31.50;19.37;;;1.00;99.90;;;;;;4950715;29;20465;-74
2022/12/10 03:32:47;;;;;;;40.37;21.67;;;0.90;99.90;;;;;;4950991;29;20978;-74
2022/12/10 03:35:17;;;;;;;36.13;20.60;;;0.90;99.90;;;;;;4949347;28;20469;-73
2022/12/10 03:37:45;;;;;;;37.10;20.53;;;0.90;99.90;;;;;;4950536;29;20455;-74
2022/12/10 03:40:13;;;;;;;32.37;17.90;;;1.00;99.90;;;;;;4950773;28;20475;-74
2022/12/10 03:42:46;;;;;;;36.67;18.30;;;1.00;99.90;;;;;;4950547;29;20459;-74
2022/12/10 03:45:19;;;;;;;35.50;16.87;;;1.00;99.90;;;;;;4950460;29;20476;-73
2022/12/10 03:47:51;;;;;;;37.80;20.13;;;1.00;99.90;;;;;;4950630;29;20465;-74
2022/12/10 03:50:28;;;;;;;39.87;19.47;;;1.00;99.90;;;;;;4950953;29;20465;-74
2022/12/10 03:52:59;;;;;;;41.30;19.67;;;1.00;99.90;;;;;;4934811;29;20459;-73
2022/12/10 03:55:26;;;;;;;47.23;21.27;;;1.10;99.90;;;;;;4950919;29;20529;-74
2022/12/10 04:00:35;;;;;;;44.33;21.80;;;1.00;99.90;;;;;;4950356;29;20462;-74
2022/12/10 04:03:06;;;;;;;35.50;19.17;;;1.00;99.90;;;;;;4950560;29;20475;-74
2022/12/10 04:05:33;;;;;;;36.30;17.93;;;1.00;99.90;;;;;;4950407;29;20454;-74
2022/12/10 04:08:01;;;;;;;43.23;19.20;;;0.90;99.90;;;;;;4949282;29;20474;-74
2022/12/10 04:10:28;;;;;;;39.93;19.97;;;0.80;99.90;;;;;;4950280;29;20474;-74
2022/12/10 04:18:26;;;;;;;38.70;20.60;;;0.70;99.90;;;;;;4950744;28;20560;-73
2022/12/10 04:29:06;;;;;;;42.37;18.90;;;0.80;99.90;;;;;;4952565;28;20462;-76
2022/12/10 04:31:33;;;;;;;39.97;18.70;;;1.00;99.90;;;;;;4953082;29;20483;-76
2022/12/10 04:34:01;;;;;;;44.93;22.83;;;0.70;99.90;;;;;;4954264;29;20461;-75
2022/12/10 04:36:28;;;;;;;39.97;18.77;;;0.80;99.90;;;;;;4952783;29;20525;-76
2022/12/10 04:38:55;;;;;;;37.30;19.67;;;0.80;99.90;;;;;;4953105;29;20863;-76
2022/12/10 04:41:22;;;;;;;34.57;18.17;;;0.90;99.90;;;;;;4954616;29;20610;-75
2022/12/10 04:43:49;;;;;;;41.73;20.20;;;1.10;99.90;;;;;;4956526;29;20479;-75
2022/12/10 04:46:16;;;;;;;36.17;18.27;;;0.90;99.90;;;;;;4953863;28;20533;-75
2022/12/10 04:48:43;;;;;;;43.73;19.63;;;0.90;99.90;;;;;;4956972;29;20447;-75
2022/12/10 04:51:11;;;;;;;36.87;19.40;;;0.70;99.90;;;;;;4956783;29;20559;-75
2022/12/10 04:53:38;;;;;;;39.00;19.67;;;0.70;99.90;;;;;;4956678;29;20485;-75
2022/12/10 04:56:06;;;;;;;36.20;19.33;;;0.90;99.90;;;;;;4952327;29;20445;-75
2022/12/10 04:58:33;;;;;;;40.70;21.37;;;0.80;99.90;;;;;;4955063;29;20537;-75
2022/12/10 05:01:04;;;;;;;32.80;17.97;;;0.80;99.90;;;;;;4954404;29;20541;-74
2022/12/10 05:03:31;;;;;;;41.93;19.90;;;0.90;99.90;;;;;;4937138;29;20995;-76
2022/12/10 05:06:02;;;;;;;35.70;18.50;;;1.00;99.90;;;;;;4953455;29;20490;-75
2022/12/10 05:08:31;;;;;;;35.80;18.93;;;0.90;99.90;;;;;;4953923;29;20525;-75
2022/12/10 05:11:02;;;;;;;38.97;19.10;;;0.90;99.90;;;;;;4952787;28;20478;-75
2022/12/10 05:13:29;;;;;;;34.53;18.60;;;0.80;99.90;;;;;;4952796;29;20476;-75
2022/12/10 05:15:56;;;;;;;37.00;20.20;;;0.80;99.90;;;;;;4953868;29;20451;-75
2022/12/10 05:18:24;;;;;;;40.20;19.60;;;0.90;99.90;;;;;;4953162;29;20486;-75
2022/12/10 05:20:51;;;;;;;36.03;19.60;;;0.80;99.90;;;;;;4952839;29;20502;-75
2022/12/10 05:23:28;;;;;;;40.40;19.50;;;0.70;99.90;;;;;;4952758;29;20451;-75
2022/12/10 05:26:05;;;;;;;38.27;19.57;;;0.80;99.90;;;;;;4949823;29;20812;-75
2022/12/10 05:28:34;;;;;;;43.20;22.07;;;0.90;99.90;;;;;;4952504;29;20518;-75
2022/12/10 05:31:01;;;;;;;42.93;19.90;;;0.90;99.90;;;;;;4953502;29;20522;-76
2022/12/10 05:33:28;;;;;;;32.27;19.23;;;0.90;99.90;;;;;;4953012;29;20451;-76
2022/12/10 05:35:57;;;;;;;33.47;18.93;;;1.00;99.90;;;;;;4952678;29;20468;-73
2022/12/10 05:38:24;;;;;;;36.93;18.87;;;1.00;99.90;;;;;;4952333;29;20970;-74
2022/12/10 05:40:51;;;;;;;33.77;19.67;;;1.00;99.90;;;;;;4953157;29;20451;-75
2022/12/10 05:43:20;;;;;;;31.23;17.40;;;0.90;99.90;;;;;;4952660;29;20457;-76
2022/12/10 05:45:47;;;;;;;29.30;16.80;;;0.90;99.90;;;;;;4953272;29;20454;-76
2022/12/10 05:48:16;;;;;;;35.20;19.20;;;0.90;99.90;;;;;;4948518;29;20499;-73
2022/12/10 05:50:43;;;;;;;33.43;16.63;;;0.80;99.90;;;;;;4946715;28;20470;-75
2022/12/10 05:53:13;;;;;;;34.53;18.60;;;0.80;99.90;;;;;;4939074;29;20470;-77
2022/12/10 05:55:41;;;;;;;32.20;17.50;;;0.80;99.90;;;;;;4936229;29;20463;-75
2022/12/10 05:58:08;;;;;;;30.10;17.47;;;0.90;99.90;;;;;;4934014;29;21003;-75
2022/12/10 06:00:36;;;;;;;29.97;17.60;;;1.00;99.90;;;;;;4935213;29;20490;-75
2022/12/10 06:03:03;;;;;;;32.10;17.73;;;1.00;99.90;;;;;;4937736;28;21059;-75
2022/12/10 06:05:30;;;;;;;30.20;19.60;;;0.90;99.90;;;;;;4952043;29;20470;-75
2022/12/10 06:07:58;;;;;;;34.10;18.60;;;0.80;99.90;;;;;;4954337;29;20461;-74
2022/12/10 06:10:25;;;;;;;35.90;18.27;;;0.90;99.90;;;;;;4954303;29;20546;-75
2022/12/10 06:12:52;;;;;;;33.57;18.80;;;0.90;99.90;;;;;;4954597;29;20483;-77
2022/12/10 06:15:19;;;;;;;37.93;18.27;;;0.90;99.90;;;;;;4946184;28;20561;-78
2022/12/10 06:17:47;;;;;;;32.67;18.57;;;0.90;99.90;;;;;;4933600;29;20464;-72
2022/12/10 06:20:14;;;;;;;38.77;20.27;;;0.90;99.90;;;;;;4932916;29;20498;-75
2022/12/10 06:22:41;;;;;;;32.57;17.80;;;1.00;99.90;;;;;;4941261;29;20986;-73
2022/12/10 06:25:10;;;;;;;29.17;19.17;;;0.90;99.90;;;;;;4952206;29;20466;-74
2022/12/10 06:27:37;;;;;;;43.83;20.97;;;0.70;99.90;;;;;;4952098;29;20528;-74
2022/12/10 06:30:05;;;;;;;34.23;18.40;;;0.70;99.90;;;;;;4952246;29;20462;-74
2022/12/10 06:32:32;;;;;;;35.17;20.23;;;0.70;99.90;;;;;;4951422;28;20614;-74
2022/12/10 06:35:01;;;;;;;35.90;20.13;;;0.80;99.90;;;;;;4951368;29;20767;-74
2022/12/10 06:37:29;;;;;;;30.57;19.10;;;0.80;99.90;;;;;;4951903;29;20470;-74
2022/12/10 06:39:56;;;;;;;44.17;21.80;;;0.80;99.90;;;;;;4950919;29;21080;-74
2022/12/10 06:42:24;;;;;;;36.53;20.63;;;0.80;99.90;;;;;;4952507;29;20933;-74
2022/12/10 06:44:51;;;;;;;33.27;19.90;;;0.80;99.90;;;;;;4952146;29;20468;-74
2022/12/10 06:47:22;;;;;;;37.00;19.40;;;0.80;99.90;;;;;;4952166;29;20467;-74
2022/12/10 06:49:49;;;;;;;32.80;18.60;;;0.70;99.90;;;;;;4952926;29;20455;-75
2022/12/10 06:52:21;;;;;;;37.20;20.90;;;0.70;99.90;;;;;;4953541;29;20455;-73
2022/12/10 06:54:49;;;;;;;40.03;22.43;;;0.70;99.90;;;;;;4953055;29;20458;-73
2022/12/10 06:57:17;;;;;;;39.70;22.43;;;0.70;99.90;;;;;;4952347;29;20537;-73
2022/12/10 06:59:45;;;;;;;44.60;23.40;;;0.70;99.90;;;;;;4952117;29;20490;-74
2022/12/10 07:02:14;;;;;;;41.50;22.60;;;0.60;99.90;;;;;;4951342;29;20996;-74
2022/12/10 07:04:41;;;;;;;41.47;23.03;;;0.70;99.90;;;;;;4951616;29;20663;-73
2022/12/10 07:07:08;;;;;;;38.50;20.50;;;1.60;99.90;;;;;;4951727;29;20588;-74
2022/12/10 07:09:36;;;;;;;43.47;22.10;;;0.70;99.90;;;;;;4952120;28;20478;-74
2022/12/10 07:12:04;;;;;;;37.97;19.90;;;0.80;99.90;;;;;;4951699;29;20525;-74
2022/12/10 07:14:31;;;;;;;44.57;21.20;;;0.80;99.90;;;;;;4951984;29;20466;-74
2022/12/10 07:16:59;;;;;;;35.77;20.13;;;0.80;99.90;;;;;;4952093;29;20539;-79
2022/12/10 07:19:26;;;;;;;38.20;17.67;;;0.80;99.90;;;;;;4952366;29;20593;-76
2022/12/10 07:21:53;;;;;;;33.63;18.83;;;0.80;99.90;;;;;;4951236;29;20489;-73
2022/12/10 07:24:20;;;;;;;32.93;18.63;;;0.90;99.90;;;;;;4951758;29;20537;-74
2022/12/10 07:26:48;;;;;;;40.27;19.57;;;0.80;99.90;;;;;;4945513;29;20992;-75
2022/12/10 07:29:18;;;;;;;31.20;19.10;;;0.80;99.90;;;;;;4946754;29;20462;-74
2022/12/10 07:31:45;;;;;;;32.73;17.83;;;0.80;99.90;;;;;;4951077;29;20621;-73
2022/12/10 07:34:13;;;;;;;35.97;15.73;;;0.80;99.90;;;;;;4951465;29;20462;-74
2022/12/10 07:36:41;;;;;;;24.47;15.80;;;0.90;99.90;;;;;;4950526;29;20454;-74
2022/12/10 07:39:09;;;;;;;28.40;16.83;;;0.90;99.90;;;;;;4950747;29;20549;-74
2022/12/10 07:41:36;;;;;;;32.23;16.30;;;0.90;99.90;;;;;;4951167;29;20462;-74
2022/12/10 07:44:06;;;;;;;22.87;16.37;;;0.90;99.90;;;;;;4950116;29;20458;-74
2022/12/10 07:46:34;;;;;;;29.60;15.43;;;0.90;99.90;;;;;;4951087;29;20465;-74
2022/12/10 07:49:05;;;;;;;29.20;17.63;;;0.90;99.90;;;;;;4950072;29;20668;-82
2022/12/10 07:51:40;;;;;;;28.60;16.27;;;1.00;99.90;;;;;;4962360;29;20449;-76
2022/12/10 07:54:09;;;;;;;30.07;17.13;;;0.90;99.90;;;;;;4952102;29;20502;-70
2022/12/10 07:56:36;;;;;;;22.53;14.57;;;0.90;99.90;;;;;;4931405;29;20488;-73
2022/12/10 07:59:06;;;;;;;30.50;16.27;;;0.90;99.90;;;;;;4946638;29;20843;-73
2022/12/10 08:01:34;;;;;;;27.77;15.83;;;0.90;99.90;;;;;;4949167;28;20694;-71
2022/12/10 08:04:02;;;;;;;26.60;16.20;;;0.90;99.90;;;;;;4933844;29;20470;-72
2022/12/10 08:06:29;;;;;;;35.80;18.63;;;1.00;99.90;;;;;;4946750;29;20462;-71
2022/12/10 08:08:59;;;;;;;33.07;17.73;;;1.10;99.90;;;;;;4947954;28;20681;-71
2022/12/10 08:11:26;;;;;;;39.47;16.07;;;1.20;99.90;;;;;;4942239;29;20505;-72
2022/12/10 08:13:54;;;;;;;30.93;16.20;;;1.20;99.90;;;;;;4949822;29;20451;-71
2022/12/10 08:16:25;;;;;;;26.17;14.40;;;1.20;99.90;;;;;;4948881;29;20546;-72
2022/12/10 08:18:53;;;;;;;27.10;14.90;;;1.30;99.90;;;;;;4949964;29;20469;-72
2022/12/10 08:21:22;;;;;;;34.03;17.33;;;1.40;99.90;;;;;;4932037;29;20539;-71
2022/12/10 08:23:50;;;;;;;28.20;15.10;;;1.40;99.90;;;;;;4934739;29;20462;-72
2022/12/10 08:26:20;;;;;;;25.33;16.07;;;1.40;99.90;;;;;;4934311;29;20459;-72
2022/12/10 08:28:48;;;;;;;25.90;15.07;;;2.20;99.90;;;;;;4934399;29;20451;-72
2022/12/10 08:31:16;;;;;;;28.77;15.80;;;1.40;99.90;;;;;;4933464;29;20477;-71
2022/12/10 08:33:47;;;;;;;28.77;17.47;;;1.40;99.90;;;;;;4935127;29;20528;-72
2022/12/10 08:36:16;;;;;;;32.80;20.47;;;1.30;99.90;;;;;;4934954;29;20455;-75
2022/12/10 08:38:46;;;;;;;29.50;17.67;;;1.30;99.90;;;;;;4934882;29;20464;-72
2022/12/10 08:41:15;;;;;;;27.70;16.20;;;1.30;99.90;;;;;;4934216;29;20566;-72
2022/12/10 08:43:43;;;;;;;27.90;16.03;;;1.30;99.90;;;;;;4934900;29;20460;-75
2022/12/10 08:46:11;;;;;;;27.77;15.97;;;1.30;99.90;;;;;;4935315;29;20462;-73
2022/12/10 08:48:39;;;;;;;28.57;16.63;;;1.30;99.90;;;;;;4933723;29;20570;-70
2022/12/10 08:51:10;;;;;;;33.20;17.07;;;1.30;99.90;;;;;;4934254;29;20451;-71
2022/12/10 08:53:37;;;;;;;33.87;18.30;;;1.30;99.90;;;;;;4915305;29;20858;-73
2022/12/10 08:56:04;;;;;;;31.00;16.13;;;1.30;99.90;;;;;;4915730;29;21142;-73
2022/12/10 08:58:31;;;;;;;33.67;17.57;;;1.40;99.90;;;;;;4915339;29;20460;-73
2022/12/10 09:01:01;;;;;;;32.80;17.67;;;1.30;99.90;;;;;;4915099;29;20492;-72
2022/12/10 09:03:29;;;;;;;31.23;16.97;;;1.30;99.90;;;;;;4920006;29;20479;-72
2022/12/10 09:05:56;;;;;;;31.03;17.67;;;1.30;99.90;;;;;;4935746;29;20473;-73
2022/12/10 09:08:28;;;;;;;35.97;18.87;;;1.30;99.90;;;;;;4935099;29;21159;-71
2022/12/10 09:10:56;;;;;;;34.97;17.23;;;1.40;99.90;;;;;;4934492;29;20479;-73
2022/12/10 09:13:23;;;;;;;38.27;20.83;;;1.50;99.90;;;;;;4934220;29;20468;-72
2022/12/10 09:21:18;;;;;;;38.10;19.57;;;1.50;99.90;;;;;;4952382;29;20584;-74
2022/12/10 09:23:48;;;;;;;40.73;20.50;;;1.50;99.90;;;;;;4958129;29;20459;-74
2022/12/10 09:26:18;;;;;;;38.77;19.97;;;1.40;99.90;;;;;;4957704;29;20454;-73
2022/12/10 09:28:48;;;;;;;38.83;19.20;;;1.40;99.90;;;;;;4953083;29;20459;-71
2022/12/10 09:31:19;;;;;;;31.87;17.10;;;1.40;99.90;;;;;;4952775;28;21010;-72
2022/12/10 09:33:49;;;;;;;36.53;18.90;;;1.50;99.90;;;;;;4953664;28;20466;-72
2022/12/10 09:36:19;;;;;;;33.93;18.20;;;1.50;99.90;;;;;;4952380;29;20809;-72
2022/12/10 09:38:53;;;;;;;33.17;17.87;;;1.50;99.90;;;;;;4955647;29;20954;-72
2022/12/10 09:41:42;;;;;;;39.33;19.03;;;1.40;99.90;;;;;;4957915;29;20483;-71
2022/12/10 09:44:14;;;;;;;33.37;17.27;;;1.40;99.90;;;;;;4952495;29;21284;-71
2022/12/10 09:46:51;;;;;;;29.30;17.30;;;1.50;99.90;;;;;;4952407;29;20462;-71
2022/12/10 09:49:31;;;;;;;36.33;19.53;;;1.50;99.90;;;;;;4952278;29;20454;-71
2022/12/10 09:52:02;;;;;;;33.43;18.33;;;1.50;99.90;;;;;;4951674;29;20465;-71
2022/12/10 09:54:34;;;;;;;31.63;18.33;;;1.50;99.90;;;;;;4952419;29;20535;-71
2022/12/10 09:57:03;;;;;;;34.07;17.87;;;1.50;99.90;;;;;;4950819;29;20998;-70
2022/12/10 09:59:33;;;;;;;31.20;17.57;;;1.50;99.90;;;;;;4950962;29;20469;-73
2022/12/10 10:02:10;;;;;;;37.53;18.87;;;1.50;99.90;;;;;;4948337;29;20458;-69
2022/12/10 10:04:37;;;;;;;31.53;18.10;;;1.50;99.90;;;;;;4952584;29;20848;-70
2022/12/10 10:07:08;;;;;;;34.30;17.60;;;1.40;99.90;;;;;;4952920;29;20463;-70
2022/12/10 10:09:41;;;;;;;36.07;17.80;;;1.30;99.90;;;;;;4950914;28;20565;-70
2022/12/10 10:12:14;;;;;;;33.60;17.60;;;1.20;99.90;;;;;;4951992;29;20551;-71
2022/12/10 10:14:42;;;;;;;37.30;19.43;;;1.30;99.90;;;;;;4952157;29;20454;-72
2022/12/10 10:17:15;;;;;;;45.73;21.20;;;1.30;99.90;;;;;;4952476;29;20455;-71
2022/12/10 10:19:44;;;;;;;35.30;17.40;;;1.10;99.90;;;;;;4950972;29;20493;-70
2022/12/10 10:22:12;;;;;;;37.53;20.17;;;1.10;99.90;;;;;;4948716;29;20477;-69
2022/12/10 10:24:45;;;;;;;44.60;19.60;;;1.20;99.90;;;;;;4950767;29;20482;-73
2022/12/10 10:27:15;;;;;;;32.27;16.87;;;1.30;99.90;;;;;;4947932;29;20554;-71
2022/12/10 10:29:45;;;;;;;33.57;16.67;;;1.40;99.90;;;;;;4950369;29;20446;-71
2022/12/10 10:32:15;;;;;;;36.43;19.50;;;1.40;99.90;;;;;;4948228;29;20467;-72
2022/12/10 10:34:45;;;;;;;35.17;17.03;;;1.40;99.90;;;;;;4950208;29;20997;-71
2022/12/10 10:37:19;;;;;;;28.13;16.67;;;1.30;99.90;;;;;;4949642;29;21819;-69
2022/12/10 10:39:52;;;;;;;34.13;17.37;;;1.50;99.90;;;;;;4949733;29;20818;-69
2022/12/10 10:42:35;;;;;;;33.70;17.30;;;1.50;99.90;;;;;;4946845;29;20462;-70
2022/12/10 10:45:04;;;;;;;34.47;17.47;;;1.60;99.90;;;;;;4946887;28;20450;-70
2022/12/10 10:47:37;;;;;;;33.90;16.97;;;1.70;99.90;;;;;;4949618;29;20452;-72
2022/12/10 10:50:26;;;;;;;34.00;17.80;;;1.50;99.90;;;;;;4949775;29;20884;-71
2022/12/10 10:52:58;;;;;;;39.37;21.60;;;1.50;99.90;;;;;;4947691;29;20455;-71
2022/12/10 10:55:35;;;;;;;33.93;17.00;;;1.50;99.90;;;;;;4950128;29;20450;-67
2022/12/10 10:58:03;;;;;;;36.47;18.50;;;1.50;99.90;;;;;;4947431;29;20461;-70
2022/12/10 11:00:31;;;;;;;26.43;15.60;;;1.60;99.90;;;;;;4949268;29;21036;-71
2022/12/10 11:03:03;;;;;;;35.50;17.20;;;1.50;99.90;;;;;;4950421;29;20494;-72
2022/12/10 11:05:37;;;;;;;35.50;17.67;;;1.70;99.90;;;;;;4950222;29;20509;-71
2022/12/10 11:08:07;;;;;;;63.33;29.70;;;1.60;99.90;;;;;;4950071;29;20446;-68
2022/12/10 11:10:38;;;;;;;44.30;24.70;;;2.00;99.90;;;;;;4948534;29;20465;-70
2022/12/10 11:13:21;;;;;;;41.40;20.13;;;2.00;99.90;;;;;;4949912;29;20451;-71
2022/12/10 11:15:56;;;;;;;38.87;18.63;;;1.90;99.90;;;;;;4949332;29;20967;-73
2022/12/10 11:18:26;;;;;;;34.73;17.77;;;1.90;99.90;;;;;;4950236;29;20823;-72
2022/12/10 11:21:02;;;;;;;30.17;15.37;;;1.80;99.90;;;;;;4946971;29;21018;-72
2022/12/10 11:23:32;;;;;;;36.60;18.97;;;1.80;99.90;;;;;;4949549;29;20545;-70
2022/12/10 11:26:29;;;;;;;39.00;19.47;;;1.70;99.90;;;;;;4949807;29;20462;-71
2022/12/10 11:29:09;;;;;;;36.67;19.00;;;1.70;99.90;;;;;;4947630;29;20463;-71
2022/12/10 11:31:54;;;;;;;32.37;17.83;;;1.70;99.90;;;;;;4946627;29;20532;-72
2022/12/10 11:34:31;;;;;;;38.73;22.83;;;1.80;99.90;;;;;;4949245;29;20486;-74
2022/12/10 11:37:07;;;;;;;40.43;19.10;;;1.70;99.90;;;;;;4951117;29;20553;-72
2022/12/10 11:40:07;;;;;;;33.57;17.57;;;1.60;99.90;;;;;;4950049;29;20470;-72
2022/12/10 11:42:48;;;;;;;34.77;20.07;;;1.60;99.90;;;;;;4949559;29;20457;-75
2022/12/10 11:45:21;;;;;;;33.53;19.20;;;1.70;99.90;;;;;;4948322;29;20458;-72
2022/12/10 11:48:04;;;;;;;34.10;16.80;;;1.60;99.90;;;;;;4948901;29;20459;-75
2022/12/10 11:50:41;;;;;;;38.33;20.73;;;1.70;99.90;;;;;;4947036;29;20450;-72
2022/12/10 11:53:20;;;;;;;36.90;18.17;;;1.70;99.90;;;;;;4948708;29;21025;-69
2022/12/10 11:55:57;;;;;;;34.13;19.87;;;1.70;99.90;;;;;;4949309;28;20458;-71
2022/12/10 11:58:46;;;;;;;33.80;18.83;;;1.80;99.90;;;;;;4953416;29;21008;-73
2022/12/10 12:01:22;;;;;;;32.37;17.50;;;1.70;99.90;;;;;;4954249;29;20482;-71
2022/12/10 12:04:03;;;;;;;34.20;18.33;;;1.70;99.90;;;;;;4952755;29;20462;-74
2022/12/10 12:06:55;;;;;;;34.07;17.73;;;1.60;99.90;;;;;;4951829;29;20458;-73
2022/12/10 12:09:30;;;;;;;34.90;18.13;;;1.60;99.90;;;;;;4954810;29;20474;-72
2022/12/10 12:12:16;;;;;;;32.87;18.43;;;1.60;99.90;;;;;;4952470;29;20456;-73
2022/12/10 12:14:47;;;;;;;30.40;18.20;;;1.60;99.90;;;;;;4952543;29;20517;-71
2022/12/10 12:17:22;;;;;;;42.63;19.40;;;1.50;99.90;;;;;;4952798;29;20659;-72
2022/12/10 12:19:54;;;;;;;28.73;17.53;;;1.50;99.90;;;;;;4951758;29;20945;-72
2022/12/10 12:22:26;;;;;;;39.10;19.20;;;1.50;99.90;;;;;;4953130;29;20561;-72
2022/12/10 12:24:58;;;;;;;38.80;20.53;;;1.40;99.90;;;;;;4953421;29;20910;-73
2022/12/10 12:27:32;;;;;;;35.00;20.80;;;1.40;99.90;;;;;;4953217;29;20455;-72
2022/12/10 12:30:09;;;;;;;34.90;18.37;;;1.40;99.90;;;;;;4953614;28;20877;-73
2022/12/10 12:32:47;;;;;;;31.47;16.97;;;1.40;99.90;;;;;;4953638;29;20458;-73
2022/12/10 12:35:21;;;;;;;33.03;18.50;;;1.40;99.90;;;;;;4953440;29;20462;-72
2022/12/10 12:38:12;;;;;;;29.47;17.93;;;1.30;99.90;;;;;;4953839;29;20450;-73
2022/12/10 12:40:50;;;;;;;34.57;19.93;;;1.30;99.90;;;;;;4953210;28;20490;-70
2022/12/10 12:43:29;;;;;;;41.37;20.90;;;1.30;99.90;;;;;;4952927;29;20959;-72
2022/12/10 12:46:07;;;;;;;28.73;17.13;;;1.30;99.90;;;;;;4953224;29;20885;-72
2022/12/10 12:48:43;;;;;;;39.87;21.67;;;1.30;99.90;;;;;;4953541;29;20482;-72
2022/12/10 12:51:15;;;;;;;42.33;23.63;;;1.40;99.90;;;;;;4952756;29;20460;-71
2022/12/10 12:53:42;;;;;;;38.73;21.43;;;1.00;99.90;;;;;;4952024;29;20476;-72
2022/12/10 12:56:24;;;;;;;43.03;21.47;;;0.90;99.90;;;;;;4953390;29;20478;-73
2022/12/10 12:59:06;;;;;;;40.00;19.20;;;1.00;99.90;;;;;;4955292;29;20505;-72
2022/12/10 13:01:41;;;;;;;37.47;19.73;;;1.00;99.90;;;;;;4960906;29;20577;-72
2022/12/10 13:04:10;;;;;;;39.67;21.00;;;1.10;99.90;;;;;;4953269;29;21175;-72
2022/12/10 13:06:44;;;;;;;34.30;19.60;;;1.20;99.90;;;;;;4953147;28;20537;-72
2022/12/10 13:09:27;;;;;;;43.40;22.87;;;1.20;99.90;;;;;;4952845;29;20553;-72
2022/12/10 13:12:27;;;;;;;42.80;21.30;;;0.90;99.90;;;;;;4952013;29;20469;-72
2022/12/10 13:15:18;;;;;;;45.03;23.10;;;1.00;99.90;;;;;;4952555;29;20563;-72
2022/12/10 13:18:11;;;;;;;36.17;21.67;;;0.70;99.90;;;;;;4952413;28;20525;-72
2022/12/10 13:20:44;;;;;;;43.27;19.87;;;0.80;99.90;;;;;;4952120;28;20490;-72
2022/12/10 13:23:35;;;;;;;43.17;23.57;;;0.90;99.90;;;;;;4952610;29;20825;-72
2022/12/10 13:26:04;;;;;;;46.23;22.30;;;0.90;99.90;;;;;;4951710;29;20463;-72
2022/12/10 13:28:50;;;;;;;49.10;22.73;;;1.80;99.90;;;;;;4952100;29;20459;-72
2022/12/10 13:31:39;;;;;;;41.03;22.03;;;1.00;99.90;;;;;;4952802;28;20474;-72
2022/12/10 13:34:26;;;;;;;48.03;21.60;;;1.00;99.90;;;;;;4947213;28;20493;-73
2022/12/10 13:37:31;;;;;;;39.47;20.80;;;1.10;99.90;;;;;;4951972;29;20541;-72
2022/12/10 13:40:13;;;;;;;41.90;22.17;;;0.90;99.90;;;;;;4952469;29;20470;-73
2022/12/10 13:45:34;;;;;;;39.70;19.40;;;0.90;99.90;;;;;;4951821;29;20457;-72
2022/12/10 13:48:23;;;;;;;48.57;20.90;;;0.90;99.90;;;;;;4952116;29;20954;-73
2022/12/10 13:51:00;;;;;;;40.10;20.67;;;1.00;99.90;;;;;;4952308;29;20887;-76
2022/12/10 13:53:38;;;;;;;44.00;22.07;;;1.00;99.90;;;;;;4950776;29;20441;-71
2022/12/10 13:56:14;;;;;;;36.27;21.00;;;1.00;99.90;;;;;;4953632;29;20965;-72
2022/12/10 13:58:50;;;;;;;41.30;21.73;;;1.10;99.90;;;;;;4949065;29;20549;-73
2022/12/10 14:01:29;;;;;;;29.17;17.80;;;0.90;99.90;;;;;;4951842;29;20482;-74
2022/12/10 14:04:08;;;;;;;32.10;18.17;;;1.10;99.90;;;;;;4952033;29;20950;-73
2022/12/10 14:06:37;;;;;;;27.83;17.60;;;1.00;99.90;;;;;;4951902;29;20458;-74
2022/12/10 14:09:06;;;;;;;40.17;20.70;;;1.10;99.90;;;;;;4951891;28;20473;-70
2022/12/10 14:11:38;;;;;;;39.53;19.40;;;1.00;99.90;;;;;;4950919;29;20450;-71
2022/12/10 14:14:10;;;;;;;37.23;20.73;;;1.00;99.90;;;;;;4944156;29;20471;-71
2022/12/10 14:16:41;;;;;;;40.90;20.93;;;0.90;99.90;;;;;;4940664;29;20551;-69
2022/12/10 14:19:17;;;;;;;43.23;21.73;;;0.80;99.90;;;;;;4946389;28;20835;-70
2022/12/10 14:21:47;;;;;;;50.50;21.03;;;0.80;99.90;;;;;;4948630;29;20501;-73
2022/12/10 14:24:33;;;;;;;34.63;20.20;;;0.90;99.90;;;;;;4947822;29;20474;-71
2022/12/10 14:27:04;;;;;;;36.43;19.33;;;0.90;99.90;;;;;;4946982;29;20893;-72
2022/12/10 14:29:31;;;;;;;38.10;21.40;;;0.90;99.90;;;;;;4943351;29;20555;-72
2022/12/10 14:31:59;;;;;;;43.03;19.03;;;0.90;99.90;;;;;;4945914;29;20597;-71
2022/12/10 14:34:28;;;;;;;38.33;21.40;;;1.00;99.90;;;;;;4948622;29;20577;-72
2022/12/10 14:36:58;;;;;;;36.67;19.50;;;0.90;99.90;;;;;;4950915;29;20463;-72
2022/12/10 14:39:28;;;;;;;42.90;24.27;;;0.90;99.90;;;;;;4949692;29;20451;-71
2022/12/10 14:41:58;;;;;;;43.53;23.33;;;0.80;99.90;;;;;;4948050;29;20490;-73
2022/12/10 14:44:26;;;;;;;41.70;23.43;;;0.60;99.90;;;;;;4935294;29;20873;-70